Commerce, Texas
Current Conditions -  °F | °C
As of 11:55 PM on Saturday 22 Nov 2014 (Local Time) from KGVT Reporting Station
Overcast Overcast  
Wind Chill: 61°   Ceiling: 1000
Heat Index: 61°   Visibility: 10mi
Dew Point: 59°   Wind: 6mph
Humidity: 94%   Direction: 160°SSE
Pressure: 29.7"   Gusts: NA
Location:  33.25°N, 95.9°W
Report Text: KGVT 230555Z AUTO 16005KT 10SM BKN010 BKN015 OVC025 16/15 A2970 RMK AO2
Loading
Personal Weather Stations






























Interactive Weather Map New forecast layout! Learn more

10-Day Weather Forecast

Advertisements
Track Severe Weather on mobile